Time;durP1;ratioP1;P1;durP2;ratioP2;P2;SDS_P1;SDS_P2;PMS_P1;PMS_P2;Temp;Humidity;BMP_temperature;BMP_pressure;BME280_temperature;BME280_humidity;BME280_pressure;Samples;Min_cycle;Max_cycle;Signal;HPM_P1;HPM_P2
2022/11/21 00:00:32;;;;;;;4.78;1.33;;;18.10;66.90;;;;;;6181642;23;45265;-68
2022/11/21 00:03:00;;;;;;;2.85;1.05;;;18.10;66.60;;;;;;6181342;23;45228;-68
2022/11/21 00:05:27;;;;;;;4.50;1.30;;;18.10;66.70;;;;;;6180852;23;45256;-69
2022/11/21 00:07:54;;;;;;;4.88;1.40;;;18.10;66.40;;;;;;6181204;22;46580;-68
2022/11/21 00:10:21;;;;;;;6.80;1.55;;;18.10;66.50;;;;;;6181264;23;45300;-69
2022/11/21 00:12:52;;;;;;;4.82;1.63;;;18.10;66.60;;;;;;6182196;23;45441;-68
2022/11/21 00:15:20;;;;;;;5.68;1.50;;;18.10;66.40;;;;;;6180375;23;45569;-69
2022/11/21 00:17:48;;;;;;;3.25;1.08;;;18.10;66.60;;;;;;6181644;23;45375;-69
2022/11/21 00:20:15;;;;;;;3.80;1.58;;;18.10;66.70;;;;;;6180699;23;45251;-69
2022/11/21 00:22:42;;;;;;;3.40;1.42;;;18.10;66.60;;;;;;6181904;23;45340;-68
2022/11/21 00:25:09;;;;;;;4.22;1.10;;;18.10;66.60;;;;;;6181141;23;45244;-69
2022/11/21 00:27:37;;;;;;;6.18;1.65;;;18.10;66.50;;;;;;6182324;23;45284;-69
2022/11/21 00:30:05;;;;;;;3.20;1.30;;;18.10;66.40;;;;;;6182437;23;45216;-69
2022/11/21 00:32:33;;;;;;;2.20;0.85;;;18.10;66.70;;;;;;6182227;23;45209;-69
2022/11/21 00:35:00;;;;;;;5.32;1.50;;;18.10;66.70;;;;;;6182328;23;45387;-68
2022/11/21 00:37:26;;;;;;;5.00;1.92;;;18.10;66.80;;;;;;6182037;23;47611;-69
2022/11/21 00:39:53;;;;;;;4.25;1.27;;;18.10;66.70;;;;;;6182765;23;45280;-68
2022/11/21 00:42:21;;;;;;;3.42;1.27;;;18.10;66.80;;;;;;6183058;23;45208;-69
2022/11/21 00:44:47;;;;;;;2.83;0.95;;;18.10;66.60;;;;;;6179747;23;45244;-69
2022/11/21 00:47:14;;;;;;;3.00;1.20;;;18.10;66.80;;;;;;6185184;23;48051;-68
2022/11/21 00:49:42;;;;;;;2.90;1.17;;;18.10;66.80;;;;;;6181303;23;45400;-68
2022/11/21 00:52:09;;;;;;;3.10;1.23;;;18.10;66.70;;;;;;6181720;23;45358;-69
2022/11/21 00:54:36;;;;;;;2.92;1.13;;;18.10;66.60;;;;;;6183114;23;45375;-69
2022/11/21 00:57:03;;;;;;;3.17;1.10;;;18.10;66.70;;;;;;6181059;23;46248;-69
2022/11/21 00:59:30;;;;;;;4.15;1.23;;;18.10;66.50;;;;;;6182735;23;45319;-69
2022/11/21 01:01:57;;;;;;;3.65;1.33;;;18.10;66.50;;;;;;6181954;23;45412;-69
2022/11/21 01:04:23;;;;;;;2.45;1.23;;;18.10;66.60;;;;;;6183039;23;45295;-69
2022/11/21 01:06:52;;;;;;;1.98;1.10;;;18.10;66.50;;;;;;6180664;23;46725;-69
2022/11/21 01:09:18;;;;;;;6.97;1.80;;;18.10;66.50;;;;;;6182733;23;45270;-69
2022/11/21 01:11:45;;;;;;;3.85;1.30;;;18.10;66.40;;;;;;6182419;23;45296;-69
2022/11/21 01:14:12;;;;;;;4.78;1.30;;;18.10;66.60;;;;;;6182573;23;45343;-69
2022/11/21 01:16:39;;;;;;;4.93;1.42;;;18.10;66.40;;;;;;6181749;23;46279;-69
2022/11/21 01:19:06;;;;;;;5.47;1.10;;;18.10;66.50;;;;;;6182181;23;45251;-69
2022/11/21 01:21:33;;;;;;;5.72;1.65;;;18.10;66.50;;;;;;6182787;23;45245;-68
2022/11/21 01:24:02;;;;;;;4.20;1.55;;;18.10;66.50;;;;;;6182861;23;45416;-69
2022/11/21 01:26:31;;;;;;;2.75;1.25;;;18.10;66.60;;;;;;6180332;23;46523;-68
2022/11/21 01:28:59;;;;;;;5.25;1.27;;;18.10;66.60;;;;;;6182729;23;45252;-69
2022/11/21 01:31:28;;;;;;;4.68;1.45;;;18.10;66.60;;;;;;6182093;23;45277;-69
2022/11/21 01:33:57;;;;;;;4.00;1.25;;;18.10;66.70;;;;;;6181948;23;45453;-69
2022/11/21 01:36:26;;;;;;;3.40;1.25;;;18.10;66.60;;;;;;6181213;23;46435;-69
2022/11/21 01:38:55;;;;;;;4.53;1.58;;;18.10;66.80;;;;;;6182091;23;45273;-69
2022/11/21 01:41:25;;;;;;;3.42;1.40;;;18.10;66.60;;;;;;6182498;23;45255;-69
2022/11/21 01:43:52;;;;;;;4.03;1.58;;;18.10;66.80;;;;;;6180468;23;45493;-68
2022/11/21 01:46:20;;;;;;;4.57;1.33;;;18.10;66.70;;;;;;6181515;23;46305;-68
2022/11/21 01:48:54;;;;;;;3.88;1.10;;;18.10;66.70;;;;;;6181847;23;45138;-69
2022/11/21 01:51:25;;;;;;;3.83;1.40;;;18.10;66.80;;;;;;6181608;23;45355;-69
2022/11/21 01:53:57;;;;;;;2.50;1.20;;;18.10;67.60;;;;;;6182553;23;45373;-68
2022/11/21 01:56:26;;;;;;;3.78;1.20;;;18.10;66.60;;;;;;6181453;23;46858;-68
2022/11/21 01:58:57;;;;;;;5.57;1.40;;;18.10;66.60;;;;;;6182670;23;45433;-69
2022/11/21 02:01:24;;;;;;;3.42;1.25;;;18.10;66.50;;;;;;6181577;23;45284;-68
2022/11/21 02:03:52;;;;;;;4.55;1.27;;;18.10;66.70;;;;;;6182918;23;45398;-68
2022/11/21 02:06:20;;;;;;;4.18;1.80;;;18.10;66.80;;;;;;6180358;23;46238;-69
2022/11/21 02:08:47;;;;;;;2.10;1.25;;;18.10;66.80;;;;;;6182572;23;45323;-68
2022/11/21 02:11:20;;;;;;;2.97;1.13;;;18.10;66.80;;;;;;6182841;23;45225;-68
2022/11/21 02:13:49;;;;;;;3.58;1.08;;;18.10;66.80;;;;;;6182570;23;45399;-68
2022/11/21 02:16:15;;;;;;;4.22;1.13;;;18.10;66.80;;;;;;6181310;23;46559;-69
2022/11/21 02:18:42;;;;;;;4.05;1.20;;;18.10;66.80;;;;;;6182043;23;45347;-69
2022/11/21 02:21:20;;;;;;;4.70;1.50;;;18.10;66.80;;;;;;6182506;23;45308;-69
2022/11/21 02:23:53;;;;;;;4.10;1.55;;;18.10;66.80;;;;;;6182084;23;45515;-69
2022/11/21 02:26:21;;;;;;;4.45;0.95;;;18.10;66.90;;;;;;6181449;23;47083;-70
2022/11/21 02:28:48;;;;;;;2.85;1.20;;;18.10;67.00;;;;;;6181859;23;45225;-69
2022/11/21 02:31:16;;;;;;;2.70;1.23;;;18.10;67.00;;;;;;6182371;23;45277;-69
2022/11/21 02:33:42;;;;;;;3.45;1.23;;;18.10;66.80;;;;;;6182382;23;45207;-68
2022/11/21 02:36:31;;;;;;;3.90;1.33;;;18.10;66.90;;;;;;6180797;23;47658;-68
2022/11/21 02:38:58;;;;;;;3.65;1.08;;;18.10;67.00;;;;;;6182537;23;45206;-69
2022/11/21 02:41:29;;;;;;;2.38;1.10;;;18.20;67.00;;;;;;6181778;23;45318;-68
2022/11/21 02:44:04;;;;;;;4.43;0.90;;;18.10;66.80;;;;;;6180898;23;45161;-69
2022/11/21 02:46:30;;;;;;;2.30;0.88;;;18.10;66.80;;;;;;6180890;23;47049;-69
2022/11/21 02:48:59;;;;;;;2.60;1.10;;;18.10;66.90;;;;;;6180094;23;45192;-69
2022/11/21 02:51:25;;;;;;;3.30;1.13;;;18.10;66.80;;;;;;6182023;23;45419;-69
2022/11/21 02:53:52;;;;;;;4.20;1.50;;;18.10;66.80;;;;;;6182213;23;45256;-68
2022/11/21 02:56:19;;;;;;;3.35;1.92;;;18.10;66.80;;;;;;6181089;23;46208;-69
2022/11/21 02:58:48;;;;;;;4.50;1.90;;;18.10;66.80;;;;;;6181916;23;45221;-69
2022/11/21 03:01:14;;;;;;;4.18;1.85;;;18.10;66.90;;;;;;6182229;23;45361;-68
2022/11/21 03:03:41;;;;;;;3.08;1.50;;;18.10;66.90;;;;;;6182261;23;45243;-68
2022/11/21 03:06:08;;;;;;;3.70;1.75;;;18.10;67.00;;;;;;6180603;23;46337;-69
2022/11/21 03:08:35;;;;;;;2.70;1.63;;;18.10;66.90;;;;;;6181785;23;45256;-69
2022/11/21 03:11:02;;;;;;;4.00;1.75;;;18.10;66.90;;;;;;6181627;23;45309;-69
2022/11/21 03:13:29;;;;;;;5.35;1.95;;;18.10;66.90;;;;;;6182559;23;45530;-69
2022/11/21 03:15:58;;;;;;;4.07;1.40;;;18.10;66.80;;;;;;6180356;23;48034;-70
2022/11/21 03:18:25;;;;;;;2.95;1.50;;;18.10;67.00;;;;;;6182380;23;45745;-69
2022/11/21 03:20:52;;;;;;;4.38;1.75;;;18.10;67.10;;;;;;6182186;23;45303;-68
2022/11/21 03:23:19;;;;;;;2.90;1.63;;;18.10;67.00;;;;;;6181825;23;45228;-69
2022/11/21 03:25:46;;;;;;;3.60;1.35;;;18.10;67.10;;;;;;6181612;23;48061;-69
2022/11/21 03:28:12;;;;;;;3.08;1.60;;;18.10;67.00;;;;;;6181766;23;45371;-69
2022/11/21 03:30:39;;;;;;;2.20;1.25;;;18.10;67.00;;;;;;6181843;23;45232;-69
2022/11/21 03:33:08;;;;;;;2.33;1.20;;;18.20;67.10;;;;;;6182065;23;45185;-69
2022/11/21 03:35:34;;;;;;;3.33;1.83;;;18.20;67.10;;;;;;6181037;23;46159;-69
2022/11/21 03:38:01;;;;;;;3.42;2.05;;;18.20;67.20;;;;;;6182032;23;45316;-69
2022/11/21 03:40:28;;;;;;;2.63;1.45;;;18.20;67.30;;;;;;6180756;23;45343;-69
2022/11/21 03:42:55;;;;;;;3.72;2.10;;;18.20;67.30;;;;;;6181270;23;45423;-69
2022/11/21 03:45:21;;;;;;;2.97;1.58;;;18.20;67.20;;;;;;6177908;23;46738;-69
2022/11/21 03:47:48;;;;;;;3.40;1.95;;;18.10;67.10;;;;;;6182078;23;45177;-68
2022/11/21 03:50:19;;;;;;;3.03;1.75;;;18.20;67.20;;;;;;6180763;23;45429;-69
2022/11/21 03:52:46;;;;;;;4.50;2.17;;;18.20;67.20;;;;;;6181117;23;45220;-68
2022/11/21 03:55:14;;;;;;;2.58;1.60;;;18.20;67.30;;;;;;6180510;23;45290;-69
2022/11/21 03:57:40;;;;;;;5.13;2.20;;;18.10;67.20;;;;;;6181518;23;45300;-69
2022/11/21 04:00:08;;;;;;;2.25;1.50;;;18.10;67.10;;;;;;6181878;23;45236;-69
2022/11/21 04:02:35;;;;;;;3.22;1.70;;;18.10;67.10;;;;;;6181487;23;45347;-69
2022/11/21 04:05:02;;;;;;;2.53;1.50;;;18.10;67.10;;;;;;6181228;23;46285;-69
2022/11/21 04:07:30;;;;;;;4.30;1.42;;;18.10;67.10;;;;;;6181026;23;45345;-69
2022/11/21 04:09:57;;;;;;;5.22;1.58;;;18.10;67.00;;;;;;6181148;23;45383;-69
2022/11/21 04:12:24;;;;;;;2.42;1.25;;;18.10;66.90;;;;;;6181811;23;45209;-68
2022/11/21 04:14:51;;;;;;;2.05;1.23;;;18.10;67.10;;;;;;6181184;23;45455;-68
2022/11/21 04:17:18;;;;;;;3.20;1.50;;;18.20;67.10;;;;;;6180816;23;45382;-69
2022/11/21 04:19:45;;;;;;;3.67;1.63;;;18.10;67.10;;;;;;6181301;23;45307;-69
2022/11/21 04:22:11;;;;;;;2.47;1.33;;;18.20;67.30;;;;;;6181347;23;45481;-68
2022/11/21 04:24:40;;;;;;;3.55;1.52;;;18.20;67.20;;;;;;6181536;23;46434;-69
2022/11/21 04:27:06;;;;;;;3.55;1.55;;;18.20;67.30;;;;;;6179673;23;45349;-69
2022/11/21 04:29:33;;;;;;;2.40;1.35;;;18.20;67.20;;;;;;6181659;23;45175;-69
2022/11/21 04:32:00;;;;;;;3.13;1.17;;;18.20;67.30;;;;;;6180687;23;45185;-69
2022/11/21 04:34:26;;;;;;;2.42;1.08;;;18.20;67.30;;;;;;6181595;23;47554;-69
2022/11/21 04:36:53;;;;;;;1.83;0.95;;;18.20;67.20;;;;;;6179630;23;45209;-69
2022/11/21 04:39:20;;;;;;;3.40;1.30;;;18.20;67.10;;;;;;6181053;23;45288;-69
2022/11/21 04:41:48;;;;;;;2.25;1.20;;;18.20;67.30;;;;;;6181404;23;45460;-69
2022/11/21 04:44:15;;;;;;;2.33;1.10;;;18.20;67.10;;;;;;6179703;23;46591;-68
2022/11/21 04:46:42;;;;;;;2.00;1.00;;;18.20;67.10;;;;;;6179771;23;45268;-69
2022/11/21 04:49:09;;;;;;;3.92;1.10;;;18.10;67.00;;;;;;6179824;23;45361;-69
2022/11/21 04:51:35;;;;;;;1.83;1.00;;;18.20;67.00;;;;;;6180186;23;45360;-69
2022/11/21 04:54:02;;;;;;;1.35;0.90;;;18.20;67.00;;;;;;6181273;23;45314;-69
2022/11/21 04:56:29;;;;;;;3.38;1.20;;;18.20;67.20;;;;;;6179630;23;45364;-69
2022/11/21 04:58:58;;;;;;;3.58;1.55;;;18.10;67.00;;;;;;6181738;23;45344;-68
2022/11/21 05:01:24;;;;;;;2.90;1.00;;;18.20;67.10;;;;;;6180805;23;45313;-69
2022/11/21 05:03:52;;;;;;;1.92;1.15;;;18.20;66.90;;;;;;6181079;23;46252;-69
2022/11/21 05:06:19;;;;;;;4.03;1.20;;;18.10;66.90;;;;;;6179487;23;45371;-69
2022/11/21 05:08:46;;;;;;;2.00;1.20;;;18.20;68.10;;;;;;6181392;23;45329;-69
2022/11/21 05:13:59;;;;;;;1.80;0.93;;;18.20;67.10;;;;;;6181910;23;45702;-69
2022/11/21 05:16:25;;;;;;;2.50;1.17;;;18.20;67.10;;;;;;6182291;23;45879;-69
2022/11/21 05:18:52;;;;;;;3.85;1.10;;;18.20;67.00;;;;;;6182161;23;45291;-69
2022/11/21 05:21:19;;;;;;;2.90;0.90;;;18.20;67.10;;;;;;6182886;23;45371;-68
2022/11/21 05:23:45;;;;;;;1.92;0.90;;;18.20;66.90;;;;;;6182457;23;46429;-69
2022/11/21 05:26:13;;;;;;;2.85;1.00;;;18.10;66.90;;;;;;6181268;23;45419;-69
2022/11/21 05:28:40;;;;;;;4.05;1.15;;;18.10;66.70;;;;;;6183047;23;45256;-68
2022/11/21 05:31:08;;;;;;;1.33;0.90;;;18.10;66.90;;;;;;6181851;23;45417;-68
2022/11/21 05:33:35;;;;;;;2.22;0.90;;;18.20;67.00;;;;;;6182401;23;45362;-68
2022/11/21 05:36:02;;;;;;;3.50;1.10;;;18.20;67.00;;;;;;6181124;23;45519;-69
2022/11/21 05:38:28;;;;;;;2.42;1.00;;;18.20;66.80;;;;;;6182517;23;45367;-69
2022/11/21 05:40:55;;;;;;;2.35;1.10;;;18.20;66.90;;;;;;6182184;23;45316;-69
2022/11/21 05:46:08;;;;;;;1.95;1.10;;;18.20;66.70;;;;;;6180675;23;45355;-69
2022/11/21 05:48:35;;;;;;;1.60;0.80;;;18.20;66.60;;;;;;6181170;23;45381;-69
2022/11/21 05:51:03;;;;;;;2.25;0.98;;;18.20;66.50;;;;;;6179307;23;45495;-69
2022/11/21 05:53:30;;;;;;;2.28;1.05;;;18.10;66.60;;;;;;6181822;23;46388;-69
2022/11/21 05:56:01;;;;;;;1.92;1.10;;;18.10;66.60;;;;;;6180919;23;45273;-68
2022/11/21 05:58:29;;;;;;;3.58;0.90;;;18.10;66.60;;;;;;6181373;23;45364;-69
2022/11/21 06:00:56;;;;;;;1.77;0.98;;;18.10;66.80;;;;;;6181819;23;45441;-69
2022/11/21 06:03:27;;;;;;;1.50;0.80;;;18.10;66.80;;;;;;6182447;23;46340;-69
2022/11/21 06:05:58;;;;;;;2.72;0.90;;;18.10;66.80;;;;;;6180545;23;45316;-69
2022/11/21 06:08:25;;;;;;;2.90;1.00;;;18.10;66.90;;;;;;6180446;23;45232;-69
2022/11/21 06:10:52;;;;;;;1.40;0.80;;;18.10;67.10;;;;;;6181396;23;45479;-68
2022/11/21 06:13:24;;;;;;;2.47;0.90;;;18.10;67.00;;;;;;6181927;23;48405;-68
2022/11/21 06:15:55;;;;;;;4.10;1.25;;;18.20;67.20;;;;;;6181119;23;45643;-69
2022/11/21 06:18:22;;;;;;;1.33;0.73;;;18.20;67.30;;;;;;6182037;23;45272;-68
2022/11/21 06:20:51;;;;;;;3.00;1.00;;;18.10;67.30;;;;;;6182623;23;45344;-69
2022/11/21 06:23:18;;;;;;;1.83;1.00;;;18.10;67.20;;;;;;6180195;23;48068;-68
2022/11/21 06:25:44;;;;;;;2.05;0.90;;;18.10;67.10;;;;;;6181241;23;45371;-68
2022/11/21 06:28:11;;;;;;;1.25;0.90;;;18.10;66.90;;;;;;6182317;23;45229;-69
2022/11/21 06:30:38;;;;;;;2.88;1.02;;;18.10;67.00;;;;;;6182149;23;45209;-69
2022/11/21 06:33:06;;;;;;;2.75;1.10;;;18.10;67.00;;;;;;6181642;23;47532;-69
2022/11/21 06:35:33;;;;;;;2.42;1.20;;;18.10;66.90;;;;;;6179465;23;45330;-69
2022/11/21 06:38:01;;;;;;;3.80;1.17;;;18.10;66.60;;;;;;6182146;23;45423;-69
2022/11/21 06:40:28;;;;;;;1.75;0.90;;;18.10;66.30;;;;;;6180943;23;45291;-69
2022/11/21 06:42:56;;;;;;;2.22;1.10;;;18.00;65.70;;;;;;6182135;23;45229;-69
2022/11/21 06:45:23;;;;;;;1.80;0.88;;;18.00;65.70;;;;;;6179596;23;45435;-69
2022/11/21 06:47:50;;;;;;;1.85;1.05;;;18.00;65.40;;;;;;6181943;23;45225;-69
2022/11/21 06:50:17;;;;;;;2.78;0.90;;;18.00;65.70;;;;;;6180871;23;45261;-68
2022/11/21 06:52:44;;;;;;;2.40;1.00;;;18.00;65.20;;;;;;6181597;23;46614;-68
2022/11/21 06:55:13;;;;;;;2.22;1.30;;;18.00;65.20;;;;;;6181430;23;45305;-69
2022/11/21 06:57:40;;;;;;;2.28;1.10;;;18.00;64.70;;;;;;6183239;23;45330;-68
2022/11/21 07:00:08;;;;;;;3.03;1.10;;;18.00;64.60;;;;;;6182494;23;45201;-69
2022/11/21 07:02:34;;;;;;;3.88;1.05;;;18.00;64.60;;;;;;6179143;23;46323;-69
2022/11/21 07:05:01;;;;;;;3.15;1.20;;;18.00;64.50;;;;;;6181575;23;45296;-68
2022/11/21 07:07:28;;;;;;;1.73;1.00;;;18.00;64.60;;;;;;6178759;23;45438;-69
2022/11/21 07:09:55;;;;;;;2.55;1.35;;;18.00;64.70;;;;;;6181494;23;45399;-69
2022/11/21 07:15:09;;;;;;;3.47;1.05;;;18.00;64.50;;;;;;6181786;23;45470;-68
2022/11/21 07:17:36;;;;;;;2.20;0.98;;;18.00;64.50;;;;;;6181151;23;45366;-69
2022/11/21 07:20:04;;;;;;;2.13;1.00;;;18.10;64.60;;;;;;6181996;23;45433;-68
2022/11/21 07:22:31;;;;;;;2.05;0.95;;;18.00;64.40;;;;;;6181388;23;46452;-68
2022/11/21 07:24:58;;;;;;;2.13;1.02;;;18.10;64.60;;;;;;6182169;23;45367;-69
2022/11/21 07:27:26;;;;;;;4.10;1.13;;;18.10;64.70;;;;;;6180796;23;45245;-69
2022/11/21 07:29:56;;;;;;;1.15;0.85;;;18.10;64.80;;;;;;6182218;23;45445;-68
2022/11/21 07:32:23;;;;;;;1.00;0.70;;;18.10;65.00;;;;;;6179974;23;46422;-68
2022/11/21 07:34:50;;;;;;;1.95;0.90;;;18.10;65.10;;;;;;6178542;23;45273;-69
2022/11/21 07:37:17;;;;;;;3.25;1.00;;;18.10;65.30;;;;;;6180264;23;45232;-69
2022/11/21 07:39:43;;;;;;;2.42;1.20;;;18.10;65.70;;;;;;6179591;23;45437;-68
2022/11/21 07:42:10;;;;;;;1.80;0.98;;;18.10;65.80;;;;;;6181527;23;45425;-69
2022/11/21 07:44:38;;;;;;;1.27;0.82;;;18.10;65.60;;;;;;6180718;23;45436;-69
2022/11/21 07:47:05;;;;;;;2.00;0.98;;;18.10;65.80;;;;;;6179686;23;45209;-70
2022/11/21 07:49:32;;;;;;;2.30;0.97;;;18.10;66.00;;;;;;6180029;23;45511;-69
2022/11/21 07:51:59;;;;;;;2.60;1.05;;;18.10;66.10;;;;;;6180310;23;47040;-69
2022/11/21 07:54:26;;;;;;;1.63;0.90;;;18.10;66.10;;;;;;6180696;23;45776;-69
2022/11/21 07:56:53;;;;;;;1.80;0.83;;;18.10;66.30;;;;;;6179505;23;45438;-69
2022/11/21 07:59:19;;;;;;;0.93;0.70;;;18.10;66.30;;;;;;6181043;23;45232;-70
2022/11/21 08:01:47;;;;;;;1.52;1.00;;;18.10;66.40;;;;;;6181448;23;46274;-69
2022/11/21 08:04:14;;;;;;;1.52;0.82;;;18.10;66.40;;;;;;6180999;23;45250;-69
2022/11/21 08:06:41;;;;;;;2.95;1.10;;;18.10;66.40;;;;;;6180337;23;45334;-69
2022/11/21 08:09:08;;;;;;;1.33;0.75;;;18.10;66.40;;;;;;6181005;23;45328;-69
2022/11/21 08:11:36;;;;;;;1.60;0.73;;;18.10;66.40;;;;;;6180356;23;45329;-69
2022/11/21 08:14:02;;;;;;;3.35;1.00;;;18.10;66.50;;;;;;6181551;23;45323;-69
2022/11/21 08:16:31;;;;;;;1.23;0.73;;;18.10;66.50;;;;;;6179879;23;45261;-70
2022/11/21 08:19:00;;;;;;;2.10;1.02;;;18.10;66.50;;;;;;6181879;23;45328;-69
2022/11/21 08:21:27;;;;;;;1.90;0.70;;;18.10;66.60;;;;;;6181421;23;45409;-70
2022/11/21 08:23:54;;;;;;;2.00;0.90;;;18.10;66.60;;;;;;6180950;23;45442;-69
2022/11/21 08:26:21;;;;;;;2.85;0.80;;;18.10;66.60;;;;;;6180881;23;45458;-69
2022/11/21 08:28:48;;;;;;;2.75;1.10;;;18.10;66.70;;;;;;6181828;23;45258;-69
2022/11/21 08:31:15;;;;;;;1.02;0.70;;;18.10;66.70;;;;;;6180874;23;45425;-68
2022/11/21 08:33:41;;;;;;;2.60;0.90;;;18.10;66.80;;;;;;6181094;23;45321;-69
2022/11/21 08:36:10;;;;;;;2.33;0.80;;;18.10;66.70;;;;;;6179893;23;45213;-70
2022/11/21 08:38:37;;;;;;;1.55;0.68;;;18.10;66.80;;;;;;6181508;23;45523;-68
2022/11/21 08:43:48;;;;;;;2.42;0.80;;;18.10;66.80;;;;;;6181774;23;45305;-69
2022/11/21 08:46:15;;;;;;;1.00;0.70;;;18.10;66.80;;;;;;6180927;23;45370;-69
2022/11/21 08:48:42;;;;;;;2.25;1.15;;;18.10;66.80;;;;;;6180493;23;45362;-69
2022/11/21 08:51:10;;;;;;;2.15;0.90;;;18.10;66.70;;;;;;6180585;23;47163;-70
2022/11/21 08:53:37;;;;;;;1.85;0.98;;;18.10;66.80;;;;;;6182436;23;45393;-70
2022/11/21 08:56:04;;;;;;;1.40;0.80;;;18.10;66.80;;;;;;6182123;23;45231;-69
2022/11/21 08:58:31;;;;;;;1.90;0.90;;;18.10;66.80;;;;;;6183135;23;45392;-70
2022/11/21 09:00:59;;;;;;;2.15;0.80;;;18.10;66.80;;;;;;6181962;23;45292;-69
2022/11/21 09:03:26;;;;;;;1.98;0.73;;;18.10;66.90;;;;;;6182675;23;45362;-70
2022/11/21 09:05:52;;;;;;;2.20;1.10;;;18.10;67.00;;;;;;6181141;23;45366;-70
2022/11/21 09:08:21;;;;;;;2.80;1.00;;;18.10;67.00;;;;;;6182512;23;45444;-69
2022/11/21 09:10:47;;;;;;;2.05;1.08;;;18.10;67.00;;;;;;6182513;23;46553;-70
2022/11/21 09:13:14;;;;;;;2.00;0.90;;;18.10;67.00;;;;;;6182212;23;45396;-69
2022/11/21 09:18:25;;;;;;;2.33;1.17;;;18.10;67.10;;;;;;6182591;23;45298;-69
2022/11/21 09:20:52;;;;;;;2.08;1.10;;;18.10;67.10;;;;;;6181910;23;47276;-70
2022/11/21 09:23:20;;;;;;;1.38;0.82;;;18.10;67.00;;;;;;6181427;23;45257;-69
2022/11/21 09:25:47;;;;;;;1.55;0.88;;;18.10;67.10;;;;;;6180098;23;45336;-71
2022/11/21 09:28:15;;;;;;;31.40;3.40;;;18.10;67.10;;;;;;6183158;23;45369;-70
2022/11/21 09:30:42;;;;;;;16.05;1.80;;;18.20;68.10;;;;;;6181108;23;46263;-70
2022/11/21 09:33:13;;;;;;;9.68;1.33;;;18.20;67.90;;;;;;6182556;23;45389;-70
2022/11/21 09:35:39;;;;;;;3.83;1.10;;;18.20;67.80;;;;;;6181789;23;45423;-71
2022/11/21 09:38:06;;;;;;;4.32;0.95;;;18.20;67.80;;;;;;6182441;23;45356;-71
2022/11/21 09:40:36;;;;;;;1.50;0.98;;;18.10;67.80;;;;;;6181338;23;46467;-70
2022/11/21 09:43:13;;;;;;;3.55;1.20;;;18.10;67.80;;;;;;6180211;23;45257;-70
2022/11/21 09:45:46;;;;;;;3.63;1.00;;;18.10;67.80;;;;;;6181496;23;45304;-71
2022/11/21 09:48:15;;;;;;;2.85;0.85;;;18.10;67.80;;;;;;6181163;23;45367;-70
2022/11/21 09:50:48;;;;;;;2.90;0.93;;;18.10;67.80;;;;;;6179776;23;46551;-70
2022/11/21 09:53:19;;;;;;;5.15;1.05;;;18.10;67.80;;;;;;6182579;23;45921;-70
2022/11/21 09:55:51;;;;;;;3.17;1.10;;;18.10;67.80;;;;;;6181264;23;45320;-70
2022/11/21 09:58:25;;;;;;;4.72;1.35;;;18.10;67.70;;;;;;6182465;23;45201;-70
2022/11/21 10:00:53;;;;;;;1.70;0.88;;;18.20;67.80;;;;;;6181978;23;46282;-70
2022/11/21 10:03:24;;;;;;;1.98;0.80;;;18.20;67.60;;;;;;6181051;23;45376;-70
2022/11/21 10:05:54;;;;;;;3.70;1.55;;;18.20;67.70;;;;;;6181290;23;45450;-69
2022/11/21 10:08:33;;;;;;;2.97;1.00;;;18.30;67.90;;;;;;6181674;23;45300;-70
2022/11/21 10:11:11;;;;;;;1.95;0.88;;;18.30;67.90;;;;;;6181882;23;46389;-70
2022/11/21 10:13:54;;;;;;;0.80;0.68;;;18.30;67.90;;;;;;6181474;23;45269;-70
2022/11/21 10:16:28;;;;;;;2.55;1.02;;;18.30;68.00;;;;;;6181179;23;45464;-70
2022/11/21 10:19:17;;;;;;;1.48;0.73;;;18.30;67.90;;;;;;6182913;23;45211;-70
2022/11/21 10:22:04;;;;;;;2.08;1.17;;;18.30;67.90;;;;;;6181836;23;48122;-70
2022/11/21 10:24:40;;;;;;;1.80;0.68;;;18.30;67.80;;;;;;6182557;23;45286;-70
2022/11/21 10:27:14;;;;;;;2.28;0.85;;;18.30;67.80;;;;;;6181222;23;45474;-70
2022/11/21 10:29:47;;;;;;;2.40;0.73;;;18.40;67.80;;;;;;6182792;23;45313;-70
2022/11/21 10:32:22;;;;;;;3.13;0.70;;;18.40;67.70;;;;;;6181658;23;46478;-69
2022/11/21 10:34:51;;;;;;;1.38;0.60;;;18.40;67.70;;;;;;6182319;23;45328;-70
2022/11/21 10:37:32;;;;;;;3.60;1.02;;;18.30;67.70;;;;;;6181336;23;45322;-70
2022/11/21 10:40:05;;;;;;;1.38;0.60;;;18.40;67.80;;;;;;6182118;23;45398;-69
2022/11/21 10:42:38;;;;;;;1.48;0.60;;;18.40;67.70;;;;;;6182523;23;48283;-70
2022/11/21 10:45:17;;;;;;;1.80;0.70;;;18.40;67.80;;;;;;6181687;23;45672;-70
2022/11/21 10:47:46;;;;;;;1.30;0.90;;;18.40;67.70;;;;;;6180477;23;45380;-69
2022/11/21 10:50:37;;;;;;;2.58;0.73;;;18.40;67.60;;;;;;6179649;23;45205;-70
2022/11/21 10:56:02;;;;;;;1.80;0.70;;;18.40;67.50;;;;;;6180054;23;45233;-70
2022/11/21 10:58:42;;;;;;;1.73;0.90;;;18.40;67.50;;;;;;6181917;23;45306;-70
2022/11/21 11:01:21;;;;;;;1.77;0.73;;;18.40;67.70;;;;;;6182223;23;45522;-70
2022/11/21 11:04:04;;;;;;;2.30;0.65;;;18.50;67.80;;;;;;6181176;23;45396;-68
2022/11/21 11:06:31;;;;;;;3.40;0.60;;;18.50;67.70;;;;;;6181076;22;45336;-70
2022/11/21 11:08:57;;;;;;;1.05;0.70;;;18.40;67.50;;;;;;6181918;23;45287;-70
2022/11/21 11:11:25;;;;;;;1.73;0.70;;;18.50;67.60;;;;;;6181267;23;45210;-69
2022/11/21 11:13:57;;;;;;;2.30;0.95;;;18.50;67.40;;;;;;6182120;23;45291;-70
2022/11/21 11:16:26;;;;;;;2.97;0.90;;;18.40;67.40;;;;;;6180249;23;45300;-70
2022/11/21 11:18:58;;;;;;;1.58;0.70;;;18.40;67.50;;;;;;6182102;23;45419;-70
2022/11/21 11:21:27;;;;;;;1.30;0.68;;;18.40;67.50;;;;;;6180531;23;45332;-70
2022/11/21 11:24:05;;;;;;;1.45;0.65;;;18.40;67.40;;;;;;6181351;23;46534;-70
2022/11/21 11:26:32;;;;;;;1.67;0.85;;;18.40;67.30;;;;;;6180709;23;45344;-69
2022/11/21 11:29:08;;;;;;;1.17;0.52;;;18.40;67.20;;;;;;6181690;23;45335;-69
2022/11/21 11:31:43;;;;;;;1.77;0.88;;;18.30;67.30;;;;;;6182008;23;45255;-70
2022/11/21 11:34:14;;;;;;;1.08;0.50;;;18.40;67.50;;;;;;6181398;23;46370;-70
2022/11/21 11:36:55;;;;;;;1.95;0.80;;;18.40;67.30;;;;;;6181339;23;45288;-69
2022/11/21 11:39:36;;;;;;;1.73;0.60;;;18.30;67.20;;;;;;6179434;23;45316;-70
2022/11/21 11:48:23;;;;;;;1.92;0.60;;;18.40;67.20;;;;;;6180520;23;45312;-70
2022/11/21 11:50:53;;;;;;;1.50;0.73;;;18.40;67.00;;;;;;6178313;23;45367;-69
2022/11/21 11:53:23;;;;;;;0.98;0.50;;;18.40;67.00;;;;;;6180256;23;45401;-69
2022/11/21 11:55:53;;;;;;;2.50;0.70;;;18.40;67.00;;;;;;6178465;23;48120;-69
2022/11/21 11:58:26;;;;;;;1.92;0.70;;;18.30;67.00;;;;;;6180433;23;45272;-69
2022/11/21 12:01:00;;;;;;;2.25;0.60;;;18.30;67.00;;;;;;6181330;23;45349;-69
2022/11/21 12:03:36;;;;;;;1.02;0.50;;;18.30;67.00;;;;;;6182040;23;45379;-70
2022/11/21 12:06:05;;;;;;;0.88;0.43;;;18.40;66.90;;;;;;6179750;23;46310;-70
2022/11/21 12:08:45;;;;;;;1.58;0.45;;;18.30;66.80;;;;;;6178491;22;45197;-70
2022/11/21 12:15:47;;;;;;;1.17;0.52;;;18.30;66.70;;;;;;6181217;23;45262;-69
2022/11/21 12:17:08;;;;;;;1.98;0.70;;;18.30;66.70;;;;;;6179683;23;46019;-69
2022/11/21 12:19:37;;;;;;;1.58;0.65;;;18.30;66.80;;;;;;6182025;23;45372;-69
2022/11/21 12:22:05;;;;;;;0.90;0.60;;;18.30;67.60;;;;;;6181978;23;45241;-69
2022/11/21 12:24:33;;;;;;;1.67;0.45;;;18.30;66.50;;;;;;6182533;23;45281;-70
2022/11/21 12:27:10;;;;;;;0.90;0.40;;;18.30;66.40;;;;;;6181493;23;45418;-69
2022/11/21 12:29:49;;;;;;;1.10;0.57;;;18.30;66.50;;;;;;6182457;23;45308;-70
2022/11/21 12:32:33;;;;;;;1.15;0.60;;;18.30;66.40;;;;;;6182835;23;45294;-69
2022/11/21 12:35:19;;;;;;;0.65;0.40;;;18.30;66.60;;;;;;6182531;23;45346;-70
2022/11/21 12:37:54;;;;;;;0.75;0.45;;;18.30;66.50;;;;;;6182322;23;45264;-69
2022/11/21 12:40:31;;;;;;;0.45;0.30;;;18.30;66.40;;;;;;6182199;23;45997;-70
2022/11/21 12:43:13;;;;;;;0.98;0.45;;;18.30;66.30;;;;;;6182455;23;45405;-69
2022/11/21 12:45:48;;;;;;;1.80;0.50;;;18.30;66.30;;;;;;6182868;23;45473;-70
2022/11/21 12:54:52;;;;;;;1.25;0.40;;;18.30;66.20;;;;;;6182798;23;45225;-69
2022/11/21 12:57:20;;;;;;;0.75;0.50;;;18.30;66.40;;;;;;6182647;23;45255;-70
2022/11/21 12:59:52;;;;;;;0.20;0.20;;;18.30;66.40;;;;;;6182212;23;46283;-70
2022/11/21 13:02:31;;;;;;;1.30;0.50;;;18.30;66.30;;;;;;6182377;23;45317;-70
2022/11/21 13:05:01;;;;;;;0.80;0.50;;;18.30;66.40;;;;;;6181108;23;45351;-70
2022/11/21 13:07:30;;;;;;;1.00;0.50;;;18.30;67.40;;;;;;6182452;22;45479;-69
2022/11/21 13:09:59;;;;;;;0.85;0.40;;;18.30;66.30;;;;;;6182174;23;47140;-70
2022/11/21 13:12:35;;;;;;;3.00;0.65;;;18.30;66.10;;;;;;6181784;23;45727;-70
2022/11/21 13:15:10;;;;;;;1.55;0.47;;;18.30;66.20;;;;;;6182231;23;45218;-70
2022/11/21 13:17:45;;;;;;;1.45;0.40;;;18.30;66.20;;;;;;6182840;23;45327;-69
2022/11/21 13:20:21;;;;;;;2.95;0.70;;;18.30;66.20;;;;;;6181209;23;46328;-70
2022/11/21 13:22:53;;;;;;;0.55;0.38;;;18.30;66.20;;;;;;6182172;23;45273;-70
2022/11/21 13:25:46;;;;;;;1.10;0.30;;;18.30;66.10;;;;;;6181604;23;45428;-70
2022/11/21 13:28:33;;;;;;;2.10;0.60;;;18.20;66.00;;;;;;6182234;23;45597;-69
2022/11/21 13:31:01;;;;;;;1.48;0.30;;;18.20;65.90;;;;;;6181487;23;45475;-70